16°C Temp
13°C Dewpoint
83% Humidity
Temperature
23 KM/H
14 MPH
12 KTS
150°
South South
East

Wind Speed
Partly Cloudy
Conditions
Pressure 1007.92 (hPa) - 29.76 (in)
Visibility 6.2 (mi) - 10.0 (km)

Current Conditions
LEJR
Location 25(km)
Metar :LEJR 072130Z 15012KT 100V190 9999 FEW045 16/13 Q1008
Wed 7th December 23:30 pm

Airport
  Metar Aviation API Data Provided by https://www.checkwx.com/ PHP scripts by weather34.com ©2022